Terminal Aerodrome Forecast
Issued by NWS

Home | Current Version | Previous Version | Text Only | Print | Product List | Glossary On
Versions: 1 2 3 4 5 6 7 8 9 10 11 12 13 14 15 16 17 18 19 20 21 22
000
FTUS44 KTSA 192340
TAFXNA
TAF
KXNA 192340Z 2000/2024 20012KT P6SM SCT015
     FM200300 18007KT 2SM BR OVC007
     FM200600 18005KT 1SM BR OVC003
     FM201500 18006KT 4SM BR OVC003
     FM201800 18012KT P6SM OVC015
     FM202100 20015G22KT P6SM SCT250=

USA.gov is the U.S. government's official web portal to all federal, state and local government web resources and services.